Time;durP1;ratioP1;P1;durP2;ratioP2;P2;SDS_P1;SDS_P2;PMS_P1;PMS_P2;Temp;Humidity;BMP_temperature;BMP_pressure;BME280_temperature;BME280_humidity;BME280_pressure;Samples;Min_cycle;Max_cycle;Signal;HPM_P1;HPM_P2
2022/01/01 00:00:04;;;;;;;50.80;26.90;;;;;7.40;97680.60;;;;108886;1270;42749;-66
2022/01/01 00:03:00;;;;;;;57.80;31.10;;;;;7.40;97675.80;;;;108886;1270;41123;-70
2022/01/01 00:05:29;;;;;;;62.10;31.10;;;;;7.40;97679.80;;;;108899;1270;41611;-68
2022/01/01 00:08:00;;;;;;;61.10;32.20;;;;;7.40;97684.80;;;;108700;1270;41122;-68
2022/01/01 00:10:30;;;;;;;63.00;33.20;;;;;7.40;97683.80;;;;108768;1270;41230;-70
2022/01/01 00:13:13;;;;;;;66.90;34.00;;;;;7.38;97679.60;;;;108701;1269;41110;-69
2022/01/01 00:15:42;;;;;;;61.50;31.10;;;;;7.30;97693.40;;;;108669;1271;41691;-66
2022/01/01 00:18:11;;;;;;;50.40;27.10;;;;;7.30;97684.00;;;;108833;1269;41622;-67
2022/01/01 00:20:42;;;;;;;42.00;24.00;;;;;7.32;97678.80;;;;108900;1269;41748;-66
2022/01/01 00:23:11;;;;;;;46.80;25.00;;;;;7.30;97676.20;;;;108838;1270;41491;-69
2022/01/01 00:25:41;;;;;;;42.60;23.10;;;;;7.30;97677.00;;;;108812;1270;41890;-65
2022/01/01 00:28:15;;;;;;;41.10;21.50;;;;;7.34;97684.80;;;;108803;1269;41600;-68
2022/01/01 00:30:43;;;;;;;40.80;21.60;;;;;7.36;97687.80;;;;108747;1269;41131;-68
2022/01/01 00:33:13;;;;;;;45.00;24.70;;;;;7.40;97692.20;;;;108823;1270;42353;-65
2022/01/01 00:35:42;;;;;;;46.30;23.30;;;;;7.40;97692.80;;;;108861;1270;41601;-67
2022/01/01 00:38:11;;;;;;;41.60;22.40;;;;;7.40;97681.20;;;;108946;1269;41481;-70
2022/01/01 00:40:40;;;;;;;40.50;21.90;;;;;7.40;97677.40;;;;108871;1269;41131;-67
2022/01/01 00:43:10;;;;;;;47.20;23.90;;;;;7.40;97678.80;;;;108851;1268;41180;-66
2022/01/01 00:45:40;;;;;;;43.30;23.30;;;;;7.40;97679.00;;;;108876;1269;41310;-67
2022/01/01 00:48:09;;;;;;;40.30;21.20;;;;;7.40;97681.60;;;;108893;1269;41850;-66
2022/01/01 00:50:38;;;;;;;40.70;20.90;;;;;7.40;97677.60;;;;108899;1269;40706;-66
2022/01/01 00:53:07;;;;;;;36.20;19.40;;;;;7.40;97678.40;;;;108923;1268;41194;-68
2022/01/01 00:55:37;;;;;;;36.30;18.90;;;;;7.42;97675.60;;;;108655;1269;41152;-64
2022/01/01 00:58:06;;;;;;;35.10;18.90;;;;;7.42;97665.40;;;;108799;1270;41144;-68
2022/01/01 01:00:36;;;;;;;32.40;17.90;;;;;7.48;97665.60;;;;108774;1270;41591;-65
2022/01/01 01:03:10;;;;;;;34.30;18.10;;;;;7.50;97662.40;;;;108872;1269;41716;-68
2022/01/01 01:05:40;;;;;;;29.10;16.10;;;;;7.44;97656.20;;;;108955;1269;41223;-67
2022/01/01 01:08:11;;;;;;;28.40;16.00;;;;;7.44;97658.20;;;;108729;1269;41878;-70
2022/01/01 01:10:46;;;;;;;31.30;17.20;;;;;7.48;97647.00;;;;108726;1270;41122;-66
2022/01/01 01:13:16;;;;;;;33.40;16.40;;;;;7.50;97650.40;;;;108951;1267;41342;-68
2022/01/01 01:15:46;;;;;;;33.20;17.70;;;;;7.50;97647.40;;;;108898;1270;41126;-65
2022/01/01 01:18:15;;;;;;;31.40;16.60;;;;;7.44;97642.20;;;;108912;1269;41171;-65
2022/01/01 01:20:45;;;;;;;32.80;17.00;;;;;7.50;97635.80;;;;108669;1270;41129;-68
2022/01/01 01:23:14;;;;;;;34.90;19.70;;;;;7.48;97626.40;;;;108841;1270;41599;-70
2022/01/01 01:25:43;;;;;;;35.50;18.20;;;;;7.40;97622.20;;;;108908;1269;42336;-69
2022/01/01 01:28:14;;;;;;;34.50;17.60;;;;;7.40;97624.20;;;;108943;1269;42161;-70
2022/01/01 01:30:45;;;;;;;38.50;19.70;;;;;7.40;97630.20;;;;108938;1269;41243;-67
2022/01/01 01:33:15;;;;;;;33.80;17.30;;;;;7.40;97627.20;;;;108978;1269;41595;-67
2022/01/01 01:35:45;;;;;;;33.40;16.60;;;;;7.40;97630.20;;;;108885;1269;41157;-67
2022/01/01 01:38:15;;;;;;;30.00;15.10;;;;;7.40;97631.80;;;;108872;1270;41175;-70
2022/01/01 01:40:44;;;;;;;28.50;13.60;;;;;7.40;97624.80;;;;108902;1269;41170;-70
2022/01/01 01:43:13;;;;;;;34.00;16.30;;;;;7.40;97619.40;;;;108929;1267;41253;-69
2022/01/01 01:45:44;;;;;;;28.10;14.40;;;;;7.40;97624.00;;;;108878;1269;41659;-67
2022/01/01 01:48:13;;;;;;;24.20;13.40;;;;;7.40;97618.80;;;;108934;1269;41135;-67
2022/01/01 01:50:43;;;;;;;27.30;13.90;;;;;7.40;97615.40;;;;108868;1269;41125;-70
2022/01/01 01:53:14;;;;;;;26.60;14.30;;;;;7.40;97613.00;;;;108702;1269;41276;-69
2022/01/01 01:55:47;;;;;;;28.80;15.00;;;;;7.50;97606.40;;;;108654;1271;41529;-65
2022/01/01 01:58:16;;;;;;;24.90;13.30;;;;;7.48;97603.40;;;;108642;1270;41125;-69
2022/01/01 02:03:34;;;;;;;26.30;13.10;;;;;7.50;97599.40;;;;108845;1270;41355;-66
2022/01/01 02:06:09;;;;;;;25.80;13.00;;;;;7.44;97593.20;;;;108848;1270;41128;-67
2022/01/01 02:08:38;;;;;;;23.70;12.00;;;;;7.50;97594.00;;;;108756;1270;41220;-66
2022/01/01 02:11:07;;;;;;;24.50;12.20;;;;;7.48;97594.00;;;;108946;1270;42136;-68
2022/01/01 02:19:47;;;;;;;23.80;11.90;;;;;7.50;97584.20;;;;108946;1270;41232;-68
2022/01/01 02:22:18;;;;;;;24.60;12.30;;;;;7.50;97581.80;;;;108983;1270;41264;-67
2022/01/01 02:24:48;;;;;;;26.10;12.70;;;;;7.50;97576.60;;;;108910;1269;41314;-66
2022/01/01 02:27:18;;;;;;;23.40;13.10;;;;;7.50;97581.00;;;;108639;1271;41138;-66
2022/01/01 02:29:47;;;;;;;26.50;12.70;;;;;7.50;97579.40;;;;108824;1269;41358;-67
2022/01/01 02:32:20;;;;;;;24.50;12.50;;;;;7.52;97576.60;;;;108939;1264;41116;-66
2022/01/01 02:34:50;;;;;;;22.50;12.00;;;;;7.50;97575.60;;;;108921;1268;41216;-70
2022/01/01 02:37:20;;;;;;;22.20;11.80;;;;;7.50;97566.20;;;;108876;1269;41297;-70
2022/01/01 02:39:50;;;;;;;22.30;11.80;;;;;7.50;97572.40;;;;108890;1268;41434;-70
2022/01/01 02:42:22;;;;;;;20.30;11.00;;;;;7.50;97561.60;;;;108841;1270;41736;-68
2022/01/01 02:44:53;;;;;;;22.30;11.30;;;;;7.50;97565.40;;;;108687;1270;41233;-69
2022/01/01 02:47:23;;;;;;;22.50;11.60;;;;;7.50;97559.60;;;;108703;1269;41251;-66
2022/01/01 02:49:53;;;;;;;20.50;10.60;;;;;7.50;97554.40;;;;108783;1271;41679;-67
2022/01/01 02:52:22;;;;;;;20.70;10.20;;;;;7.50;97553.60;;;;108727;1270;42706;-66
2022/01/01 02:54:52;;;;;;;21.00;10.70;;;;;7.50;97554.60;;;;108832;1270;41159;-70
2022/01/01 02:57:22;;;;;;;23.00;11.80;;;;;7.50;97554.00;;;;108809;1270;41230;-68
2022/01/01 02:59:52;;;;;;;24.60;12.50;;;;;7.50;97550.80;;;;108731;1270;41196;-71
2022/01/01 03:02:22;;;;;;;26.20;12.70;;;;;7.50;97551.20;;;;108656;1270;41217;-67
2022/01/01 03:04:52;;;;;;;22.00;12.00;;;;;7.50;97553.60;;;;108660;1271;41692;-70
2022/01/01 03:07:22;;;;;;;25.80;13.10;;;;;7.50;97550.00;;;;108715;1271;41231;-69
2022/01/01 03:09:55;;;;;;;27.50;14.00;;;;;7.42;97540.60;;;;108582;1271;41179;-70
2022/01/01 03:12:32;;;;;;;26.40;13.90;;;;;7.40;97545.60;;;;108626;1271;41131;-68
2022/01/01 03:15:01;;;;;;;24.30;12.80;;;;;7.40;97544.60;;;;108672;1270;41884;-66
2022/01/01 03:17:31;;;;;;;23.10;12.70;;;;;7.40;97543.00;;;;108659;1270;41128;-70
2022/01/01 03:20:03;;;;;;;26.40;13.40;;;;;7.40;97538.60;;;;108782;1270;41320;-67
2022/01/01 03:22:32;;;;;;;27.70;14.10;;;;;7.42;97532.40;;;;108686;1270;42328;-69
2022/01/01 03:25:03;;;;;;;29.60;15.50;;;;;7.50;97533.20;;;;108540;1271;41423;-70
2022/01/01 03:27:40;;;;;;;28.40;14.70;;;;;7.40;97536.20;;;;108503;1271;41591;-67
2022/01/01 03:30:10;;;;;;;27.90;14.70;;;;;7.40;97531.60;;;;108649;1270;41122;-67
2022/01/01 03:32:40;;;;;;;25.90;14.00;;;;;7.40;97534.40;;;;108573;1271;41239;-70
2022/01/01 03:35:11;;;;;;;28.30;15.40;;;;;7.40;97531.40;;;;108558;1271;41249;-69
2022/01/01 03:37:41;;;;;;;28.10;14.50;;;;;7.42;97533.40;;;;108846;1269;41916;-71
2022/01/01 03:40:12;;;;;;;27.30;13.80;;;;;7.44;97527.00;;;;108858;1270;42156;-66
2022/01/01 03:42:42;;;;;;;26.90;13.60;;;;;7.48;97522.00;;;;108742;1270;41229;-71
2022/01/01 03:45:15;;;;;;;23.40;12.70;;;;;7.50;97527.00;;;;108857;1269;41229;-69
2022/01/01 03:47:45;;;;;;;24.60;12.90;;;;;7.50;97526.80;;;;108925;1269;41106;-69
2022/01/01 03:50:14;;;;;;;23.20;12.30;;;;;7.50;97522.60;;;;108827;1269;41276;-65
2022/01/01 03:52:45;;;;;;;24.10;12.20;;;;;7.50;97529.00;;;;108836;1269;41122;-70
2022/01/01 03:55:15;;;;;;;23.10;12.00;;;;;7.50;97523.00;;;;108861;1269;41166;-66
2022/01/01 03:57:45;;;;;;;23.50;12.20;;;;;7.50;97525.20;;;;108866;1268;41363;-66
2022/01/01 04:00:16;;;;;;;22.00;11.20;;;;;7.50;97527.60;;;;108850;1269;41133;-70
2022/01/01 04:02:45;;;;;;;23.80;11.60;;;;;7.50;97520.00;;;;108727;1271;41139;-66
2022/01/01 04:05:15;;;;;;;24.00;12.50;;;;;7.50;97517.00;;;;108896;1269;41239;-67
2022/01/01 04:07:45;;;;;;;30.00;16.80;;;;;7.50;97508.40;;;;108903;1270;40832;-66
2022/01/01 04:10:15;;;;;;;36.10;18.70;;;;;7.50;97504.40;;;;108777;1270;42168;-65
2022/01/01 04:12:45;;;;;;;37.00;17.90;;;;;7.42;97509.40;;;;108830;1268;41595;-65
2022/01/01 04:15:15;;;;;;;31.40;16.50;;;;;7.40;97503.00;;;;108854;1269;41181;-65
2022/01/01 04:17:44;;;;;;;31.40;16.10;;;;;7.40;97501.20;;;;108851;1268;42154;-65
2022/01/01 04:20:14;;;;;;;31.90;16.40;;;;;7.40;97496.60;;;;108771;1270;42773;-66
2022/01/01 04:22:43;;;;;;;32.10;17.50;;;;;7.40;97494.40;;;;108890;1269;41738;-64
2022/01/01 04:25:14;;;;;;;35.80;18.90;;;;;7.40;97482.20;;;;108886;1269;41248;-65
2022/01/01 04:27:43;;;;;;;31.50;16.40;;;;;7.40;97492.60;;;;108899;1267;41722;-66
2022/01/01 04:30:14;;;;;;;35.90;18.00;;;;;7.40;97486.60;;;;108910;1268;41157;-66
2022/01/01 04:32:43;;;;;;;32.30;18.00;;;;;7.40;97488.40;;;;108775;1269;41118;-68
2022/01/01 04:35:14;;;;;;;29.40;16.90;;;;;7.40;97492.60;;;;108845;1270;41159;-69
2022/01/01 04:37:44;;;;;;;29.70;15.40;;;;;7.40;97499.20;;;;108712;1271;41726;-66
2022/01/01 04:40:14;;;;;;;24.80;13.40;;;;;7.40;97498.00;;;;108864;1269;41261;-67
2022/01/01 04:42:44;;;;;;;24.80;12.80;;;;;7.40;97501.60;;;;108801;1270;41670;-69
2022/01/01 04:45:13;;;;;;;21.90;11.90;;;;;7.40;97499.40;;;;108788;1268;41143;-65
2022/01/01 04:47:43;;;;;;;22.50;11.70;;;;;7.40;97496.00;;;;108847;1269;41119;-69
2022/01/01 04:50:14;;;;;;;23.10;11.20;;;;;7.40;97494.20;;;;108816;1269;41740;-66
2022/01/01 04:52:45;;;;;;;21.40;10.90;;;;;7.40;97499.80;;;;108783;1269;41230;-66
2022/01/01 04:55:14;;;;;;;19.80;10.40;;;;;7.42;97500.40;;;;108823;1269;41141;-69
2022/01/01 04:57:44;;;;;;;26.30;13.20;;;;;7.50;97503.60;;;;108848;1267;41248;-66
2022/01/01 05:00:14;;;;;;;22.20;11.20;;;;;7.50;97502.40;;;;108859;1267;41171;-68
2022/01/01 05:02:44;;;;;;;22.00;11.00;;;;;7.50;97509.20;;;;108850;1269;41509;-68
2022/01/01 05:05:14;;;;;;;21.60;11.00;;;;;7.50;97505.80;;;;108837;1270;41232;-68
2022/01/01 05:07:44;;;;;;;21.00;11.30;;;;;7.50;97509.00;;;;108836;1270;41184;-69
2022/01/01 05:10:14;;;;;;;22.10;11.00;;;;;7.50;97512.20;;;;108798;1270;41803;-66
2022/01/01 05:12:44;;;;;;;22.30;11.10;;;;;7.50;97512.60;;;;108755;1265;41349;-67
2022/01/01 05:15:14;;;;;;;20.50;10.60;;;;;7.50;97516.00;;;;108855;1269;41141;-69
2022/01/01 05:17:44;;;;;;;21.00;11.10;;;;;7.50;97518.60;;;;108950;1270;40876;-67
2022/01/01 05:20:13;;;;;;;23.20;11.60;;;;;7.50;97520.40;;;;108813;1270;41370;-69
2022/01/01 05:22:43;;;;;;;21.30;11.20;;;;;7.50;97525.80;;;;108785;1270;41128;-70
2022/01/01 05:25:13;;;;;;;19.50;10.50;;;;;7.50;97531.80;;;;108700;1271;41784;-69
2022/01/01 05:27:44;;;;;;;18.50;9.20;;;;;7.50;97535.20;;;;108796;1270;41236;-69
2022/01/01 05:30:13;;;;;;;19.60;10.70;;;;;7.50;97538.00;;;;108808;1266;41234;-66
2022/01/01 05:32:43;;;;;;;21.40;10.00;;;;;7.50;97541.40;;;;108780;1270;42369;-66
2022/01/01 05:35:13;;;;;;;21.20;10.90;;;;;7.54;97543.80;;;;108659;1272;41233;-65
2022/01/01 05:37:43;;;;;;;25.60;13.30;;;;;7.58;97547.60;;;;108764;1270;41505;-67
2022/01/01 05:40:17;;;;;;;23.30;11.90;;;;;7.60;97551.20;;;;108829;1270;41235;-66
2022/01/01 05:42:47;;;;;;;21.70;11.30;;;;;7.56;97547.40;;;;108791;1268;41610;-68
2022/01/01 05:45:17;;;;;;;22.50;11.50;;;;;7.60;97549.80;;;;108796;1270;41579;-68
2022/01/01 05:47:46;;;;;;;22.70;11.80;;;;;7.60;97553.00;;;;108858;1269;41962;-69
2022/01/01 05:50:23;;;;;;;20.80;11.30;;;;;7.60;97553.20;;;;108821;1270;41217;-66
2022/01/01 05:52:53;;;;;;;23.60;12.40;;;;;7.60;97560.80;;;;108780;1267;41122;-67
2022/01/01 05:55:22;;;;;;;21.90;12.40;;;;;7.60;97562.00;;;;108801;1270;41199;-65
2022/01/01 05:57:52;;;;;;;20.40;10.90;;;;;7.60;97558.00;;;;108846;1270;41214;-66
2022/01/01 06:00:21;;;;;;;20.80;11.00;;;;;7.60;97562.80;;;;108782;1270;41601;-68
2022/01/01 06:02:51;;;;;;;21.70;11.60;;;;;7.60;97566.20;;;;108741;1270;41113;-64
2022/01/01 06:05:21;;;;;;;20.80;10.80;;;;;7.60;97564.00;;;;108847;1270;41921;-67
2022/01/01 06:07:51;;;;;;;21.30;11.50;;;;;7.60;97574.60;;;;108746;1270;41119;-69
2022/01/01 06:10:22;;;;;;;19.20;10.10;;;;;7.60;97570.60;;;;108687;1270;41205;-64
2022/01/01 06:12:52;;;;;;;18.90;10.20;;;;;7.60;97575.60;;;;108909;1269;41212;-65
2022/01/01 06:15:21;;;;;;;17.80;10.30;;;;;7.60;97575.80;;;;108896;1269;41936;-67
2022/01/01 06:17:51;;;;;;;17.70;9.50;;;;;7.60;97576.80;;;;108812;1270;41166;-65
2022/01/01 06:20:21;;;;;;;15.90;9.00;;;;;7.60;97578.00;;;;108798;1269;41124;-66
2022/01/01 06:23:07;;;;;;;17.70;9.20;;;;;7.60;97583.00;;;;108776;1270;41716;-69
2022/01/01 06:25:36;;;;;;;16.60;9.10;;;;;7.60;97586.80;;;;108724;1270;41166;-66
2022/01/01 06:28:06;;;;;;;17.40;9.70;;;;;7.60;97581.40;;;;108768;1270;41600;-65
2022/01/01 06:30:36;;;;;;;18.40;9.70;;;;;7.50;97589.20;;;;108814;1269;41226;-65
2022/01/01 06:33:16;;;;;;;16.90;9.20;;;;;7.50;97590.00;;;;108815;1270;41763;-69
2022/01/01 06:35:46;;;;;;;17.20;9.70;;;;;7.58;97593.60;;;;108790;1270;42074;-70
2022/01/01 06:38:17;;;;;;;15.80;9.10;;;;;7.56;97596.00;;;;108718;1270;41135;-66
2022/01/01 06:40:46;;;;;;;17.00;9.70;;;;;7.60;97597.60;;;;108790;1269;41232;-67
2022/01/01 06:43:18;;;;;;;15.30;8.20;;;;;7.60;97595.20;;;;108866;1269;41682;-66
2022/01/01 06:45:49;;;;;;;15.00;8.60;;;;;7.60;97598.60;;;;108832;1268;41120;-68
2022/01/01 06:48:19;;;;;;;14.20;8.40;;;;;7.60;97598.60;;;;108902;1268;41136;-71
2022/01/01 06:50:48;;;;;;;15.20;8.50;;;;;7.62;97595.00;;;;108955;1269;42976;-69
2022/01/01 06:53:18;;;;;;;15.20;9.00;;;;;7.68;97600.20;;;;108974;1267;41887;-68
2022/01/01 06:55:47;;;;;;;16.70;9.80;;;;;7.70;97600.00;;;;108665;1267;41127;-70
2022/01/01 06:58:17;;;;;;;17.90;10.10;;;;;7.70;97597.00;;;;108900;1268;41222;-71
2022/01/01 07:00:46;;;;;;;17.00;10.40;;;;;7.70;97603.60;;;;108884;1269;41131;-69
2022/01/01 07:03:22;;;;;;;21.90;12.10;;;;;7.70;97606.80;;;;108807;1268;41126;-70
2022/01/01 07:05:51;;;;;;;22.40;12.10;;;;;7.70;97607.40;;;;108828;1269;41154;-69
2022/01/01 07:08:21;;;;;;;22.60;12.00;;;;;7.70;97616.00;;;;108790;1268;41871;-71
2022/01/01 07:10:50;;;;;;;21.60;11.70;;;;;7.70;97612.60;;;;108895;1268;41579;-70
2022/01/01 07:13:19;;;;;;;24.30;12.90;;;;;7.70;97610.00;;;;108750;1270;41149;-70
2022/01/01 07:15:49;;;;;;;21.60;11.60;;;;;7.70;97612.80;;;;108739;1270;42388;-70
2022/01/01 07:18:19;;;;;;;21.70;11.00;;;;;7.70;97610.20;;;;108799;1270;41214;-70
2022/01/01 07:20:48;;;;;;;21.90;11.60;;;;;7.72;97609.40;;;;108836;1267;42014;-68
2022/01/01 07:23:17;;;;;;;20.70;11.90;;;;;7.80;97611.00;;;;108837;1270;41192;-70
2022/01/01 07:25:47;;;;;;;21.40;11.90;;;;;7.80;97610.40;;;;108904;1269;41123;-71
2022/01/01 07:28:16;;;;;;;19.70;10.90;;;;;7.80;97614.80;;;;108610;1272;41215;-71
2022/01/01 07:30:46;;;;;;;20.90;11.00;;;;;7.80;97617.60;;;;108818;1269;41160;-68
2022/01/01 07:33:16;;;;;;;19.40;10.40;;;;;7.80;97624.60;;;;108828;1270;41131;-72
2022/01/01 07:35:45;;;;;;;20.50;10.90;;;;;7.82;97625.80;;;;108775;1270;41127;-70
2022/01/01 07:38:15;;;;;;;21.20;10.50;;;;;7.90;97629.80;;;;108802;1270;41904;-66
2022/01/01 07:40:44;;;;;;;22.90;11.40;;;;;7.90;97632.40;;;;108807;1269;42197;-70
2022/01/01 07:43:15;;;;;;;22.90;11.70;;;;;7.88;97631.80;;;;108864;1268;41116;-69
2022/01/01 07:45:44;;;;;;;;;;;;;7.86;97631.40;;;;108866;1269;41299;-71
2022/01/01 07:48:14;;;;;;;22.80;12.10;;;;;7.80;97635.20;;;;109015;1270;41494;-68
2022/01/01 07:50:43;;;;;;;23.20;13.10;;;;;7.80;97636.20;;;;108851;1267;41681;-65
2022/01/01 07:53:12;;;;;;;26.20;14.00;;;;;7.78;97637.00;;;;108827;1269;42181;-67
2022/01/01 07:55:41;;;;;;;24.10;13.50;;;;;7.70;97643.20;;;;108873;1269;41147;-65
2022/01/01 07:58:11;;;;;;;28.10;14.70;;;;;7.70;97645.40;;;;108832;1269;41190;-68
2022/01/01 08:00:40;;;;;;;26.20;14.90;;;;;7.70;97645.60;;;;108690;1270;42403;-64
2022/01/01 08:03:11;;;;;;;27.40;14.40;;;;;7.60;97650.00;;;;108863;1269;41137;-66
2022/01/01 08:05:41;;;;;;;;;;;;;7.60;97652.80;;;;108693;1272;41129;-67
2022/01/01 08:08:10;;;;;;;27.90;14.60;;;;;7.50;97651.60;;;;108780;1270;41269;-64
2022/01/01 08:10:39;;;;;;;26.90;14.90;;;;;7.56;97653.00;;;;108791;1270;41607;-67
2022/01/01 08:13:09;;;;;;;27.10;13.10;;;;;7.58;97656.40;;;;108819;1269;41246;-64
2022/01/01 08:15:39;;;;;;;30.60;15.90;;;;;7.60;97655.20;;;;108761;1270;41254;-65
2022/01/01 08:18:08;;;;;;;28.70;15.00;;;;;7.68;97657.60;;;;108872;1267;41645;-66
2022/01/01 08:20:39;;;;;;;30.70;15.40;;;;;7.70;97659.00;;;;108806;1269;41613;-66
2022/01/01 08:23:08;;;;;;;30.70;16.30;;;;;7.70;97658.40;;;;108814;1269;41931;-66
2022/01/01 08:25:38;;;;;;;35.30;17.10;;;;;7.76;97658.80;;;;108749;1269;41135;-71
2022/01/01 08:28:09;;;;;;;31.80;17.40;;;;;7.72;97654.60;;;;108712;1271;41614;-68
2022/01/01 08:30:38;;;;;;;31.20;15.60;;;;;7.80;97653.20;;;;108837;1268;41154;-68
2022/01/01 08:33:07;;;;;;;33.60;16.20;;;;;7.80;97652.60;;;;108865;1270;42086;-70
2022/01/01 08:35:36;;;;;;;34.00;18.80;;;;;7.80;97663.20;;;;108886;1269;42298;-68
2022/01/01 08:38:08;;;;;;;36.50;19.40;;;;;7.90;97660.60;;;;108847;1269;41229;-66
2022/01/01 08:40:39;;;;;;;35.60;19.30;;;;;7.90;97661.00;;;;108792;1269;41220;-67
2022/01/01 08:43:08;;;;;;;36.20;18.00;;;;;7.90;97664.60;;;;108759;1269;42006;-68
2022/01/01 08:46:31;;;;;;;31.90;16.00;;;;;8.00;97673.20;;;;108097;1276;542319;-66
2022/01/01 08:49:03;;;;;;;41.80;20.80;;;;;8.00;97673.20;;;;110046;1260;41272;-68
2022/01/01 08:51:37;;;;;;;32.30;17.70;;;;;8.00;97671.00;;;;110062;1260;41154;-68
2022/01/01 08:54:05;;;;;;;37.30;19.90;;;;;8.00;97669.40;;;;110098;1261;41270;-68
2022/01/01 08:56:34;;;;;;;77.70;35.30;;;;;8.00;97668.40;;;;110077;1260;41580;-66
2022/01/01 08:59:04;;;;;;;56.40;29.80;;;;;8.00;97664.20;;;;109775;1257;340638;-70
2022/01/01 09:01:33;;;;;;;47.30;28.00;;;;;8.00;97666.60;;;;110245;1257;41152;-70
2022/01/01 09:04:03;;;;;;;37.30;22.00;;;;;7.90;97664.20;;;;110262;1258;41165;-69
2022/01/01 09:06:33;;;;;;;41.90;24.10;;;;;7.90;97662.60;;;;110347;1257;41878;-65
2022/01/01 09:09:02;;;;;;;61.70;33.50;;;;;7.80;97657.40;;;;110358;1257;41146;-69
2022/01/01 09:11:31;;;;;;;64.90;34.40;;;;;7.80;97657.20;;;;110309;1257;41796;-68
2022/01/01 09:14:01;;;;;;;79.60;38.10;;;;;7.80;97657.20;;;;110207;1257;41343;-65
2022/01/01 09:16:31;;;;;;;94.80;45.40;;;;;7.80;97666.60;;;;110303;1258;41726;-64
2022/01/01 09:19:00;;;;;;;43.20;24.30;;;;;7.80;97669.80;;;;110395;1257;41270;-65
2022/01/01 09:21:29;;;;;;;46.50;25.30;;;;;7.80;97666.60;;;;110359;1256;41252;-65
2022/01/01 09:23:58;;;;;;;47.60;25.20;;;;;7.80;97672.20;;;;110276;1258;41156;-65
2022/01/01 09:26:28;;;;;;;41.80;23.50;;;;;7.80;97675.40;;;;110259;1257;41139;-65
2022/01/01 09:28:57;;;;;;;37.60;20.00;;;;;7.82;97674.60;;;;110306;1257;41528;-65
2022/01/01 09:31:26;;;;;;;31.70;18.40;;;;;7.90;97680.20;;;;110421;1257;41145;-68
2022/01/01 09:33:55;;;;;;;30.80;18.80;;;;;7.90;97683.60;;;;110305;1257;41143;-68
2022/01/01 09:36:24;;;;;;;34.50;19.60;;;;;7.90;97681.80;;;;110331;1257;41135;-65
2022/01/01 09:38:54;;;;;;;31.20;17.60;;;;;8.00;97685.00;;;;110333;1257;41202;-69
2022/01/01 09:41:23;;;;;;;35.80;20.40;;;;;8.00;97680.60;;;;110372;1257;41385;-69
2022/01/01 09:43:54;;;;;;;35.20;18.70;;;;;8.02;97683.20;;;;110345;1257;42334;-67
2022/01/01 09:46:24;;;;;;;30.80;16.60;;;;;8.10;97688.40;;;;110361;1257;41142;-67
2022/01/01 09:48:55;;;;;;;30.10;16.20;;;;;8.20;97687.80;;;;110345;1258;41151;-69
2022/01/01 09:51:26;;;;;;;27.60;15.20;;;;;8.20;97684.00;;;;110335;1257;41273;-66
2022/01/01 09:53:55;;;;;;;30.30;16.50;;;;;8.28;97678.40;;;;110396;1257;41168;-65
2022/01/01 09:56:24;;;;;;;26.70;15.70;;;;;8.30;97678.60;;;;110325;1257;41147;-65
2022/01/01 09:58:53;;;;;;;30.10;15.80;;;;;8.30;97677.40;;;;110339;1257;42211;-65
2022/01/01 10:01:22;;;;;;;33.10;17.30;;;;;8.30;97674.40;;;;110215;1257;41140;-65
2022/01/01 10:03:53;;;;;;;37.80;20.60;;;;;8.30;97681.40;;;;110511;1254;41155;-65
2022/01/01 10:06:22;;;;;;;37.60;20.70;;;;;8.30;97679.20;;;;110395;1257;41263;-64
2022/01/01 10:09:00;;;;;;;37.20;20.10;;;;;8.30;97682.60;;;;110432;1256;41612;-67
2022/01/01 10:11:30;;;;;;;40.40;20.80;;;;;8.30;97681.20;;;;110317;1257;41133;-65
2022/01/01 10:13:59;;;;;;;39.30;21.60;;;;;8.30;97685.20;;;;110421;1257;41999;-66
2022/01/01 10:16:28;;;;;;;36.30;19.80;;;;;8.24;97681.80;;;;110486;1256;41760;-65
2022/01/01 10:18:57;;;;;;;36.60;20.10;;;;;8.28;97681.40;;;;110501;1254;41604;-68
2022/01/01 10:21:28;;;;;;;37.10;20.10;;;;;8.22;97685.80;;;;110506;1256;42570;-65
2022/01/01 10:24:00;;;;;;;34.80;19.00;;;;;8.28;97687.00;;;;110500;1255;41633;-67
2022/01/01 10:29:39;;;;;;;29.00;16.00;;;;;8.30;97686.00;;;;110432;1257;42278;-66
2022/01/01 10:32:10;;;;;;;32.70;17.20;;;;;8.30;97688.60;;;;110385;1256;41929;-65
2022/01/01 10:34:46;;;;;;;31.20;16.50;;;;;8.30;97692.20;;;;110525;1255;41151;-67
2022/01/01 10:37:35;;;;;;;30.20;15.70;;;;;8.40;97687.40;;;;110387;1256;41150;-65
2022/01/01 10:40:10;;;;;;;29.60;16.00;;;;;8.40;97674.60;;;;110345;1255;41480;-65
2022/01/01 10:42:49;;;;;;;29.60;16.30;;;;;8.42;97677.60;;;;110697;1253;41284;-68
2022/01/01 10:45:37;;;;;;;37.50;18.30;;;;;8.50;97676.80;;;;110580;1252;41402;-68
2022/01/01 10:48:23;;;;;;;33.60;18.00;;;;;8.50;97678.00;;;;110899;1251;41170;-72
2022/01/01 10:51:19;;;;;;;30.30;16.60;;;;;8.50;97671.20;;;;110558;1253;41338;-68
2022/01/01 10:54:02;;;;;;;29.90;15.80;;;;;8.50;97670.80;;;;110309;1254;41273;-66
2022/01/01 10:56:39;;;;;;;34.80;19.30;;;;;8.60;97671.00;;;;110881;1253;41163;-66
2022/01/01 10:59:40;;;;;;;29.30;16.80;;;;;8.60;97669.40;;;;110600;1253;41154;-65
2022/01/01 11:02:24;;;;;;;37.30;19.70;;;;;8.60;97666.20;;;;110849;1251;41648;-69
2022/01/01 11:05:06;;;;;;;34.00;18.80;;;;;8.60;97667.20;;;;110496;1251;42392;-67
2022/01/01 11:07:51;;;;;;;32.30;17.10;;;;;8.60;97664.00;;;;110962;1247;41929;-69
2022/01/01 11:10:27;;;;;;;34.70;18.00;;;;;8.70;97669.80;;;;110708;1248;41159;-67
2022/01/01 11:13:00;;;;;;;30.40;15.00;;;;;8.70;97669.00;;;;110800;1249;41134;-69
2022/01/01 11:15:30;;;;;;;29.30;15.50;;;;;8.72;97667.40;;;;111026;1247;41248;-68
2022/01/01 11:18:02;;;;;;;28.50;16.00;;;;;8.80;97666.40;;;;111040;1247;41927;-68
2022/01/01 11:20:35;;;;;;;27.80;15.40;;;;;8.80;97667.40;;;;111175;1247;41265;-69
2022/01/01 11:23:07;;;;;;;30.50;16.70;;;;;8.80;97664.20;;;;111068;1247;41581;-65
2022/01/01 11:25:38;;;;;;;29.40;16.50;;;;;8.88;97669.40;;;;111100;1247;41148;-66
2022/01/01 11:28:14;;;;;;;30.60;15.60;;;;;8.90;97675.80;;;;111091;1247;41153;-65
2022/01/01 11:30:52;;;;;;;27.30;14.60;;;;;8.94;97672.20;;;;111116;1247;41133;-67
2022/01/01 11:33:31;;;;;;;32.80;18.30;;;;;9.00;97672.60;;;;111093;1247;41593;-70
2022/01/01 11:36:00;;;;;;;36.20;20.00;;;;;9.00;97676.00;;;;111015;1248;41239;-68
2022/01/01 11:38:32;;;;;;;33.20;18.60;;;;;9.00;97673.40;;;;111021;1249;41255;-68
2022/01/01 11:41:05;;;;;;;39.50;21.40;;;;;9.00;97672.60;;;;111136;1248;41611;-69
2022/01/01 11:43:40;;;;;;;34.40;18.60;;;;;9.00;97669.60;;;;111093;1247;41145;-67
2022/01/01 11:46:12;;;;;;;29.30;15.80;;;;;8.98;97673.60;;;;111090;1247;41135;-65
2022/01/01 11:48:45;;;;;;;34.10;18.50;;;;;9.00;97675.40;;;;110837;1249;41370;-65
2022/01/01 11:51:19;;;;;;;26.70;14.30;;;;;9.00;97672.60;;;;110951;1250;41365;-66
2022/01/01 11:54:26;;;;;;;24.90;14.60;;;;;9.00;97677.60;;;;111056;1247;41255;-67
2022/01/01 11:56:58;;;;;;;30.10;15.70;;;;;9.10;97672.00;;;;111136;1247;42515;-67
2022/01/01 11:59:38;;;;;;;24.30;12.40;;;;;9.10;97677.80;;;;111126;1247;41236;-68
2022/01/01 12:02:19;;;;;;;26.90;14.70;;;;;9.10;97673.00;;;;111110;1247;41148;-68
2022/01/01 12:04:50;;;;;;;27.10;14.40;;;;;9.10;97672.80;;;;111105;1247;41256;-65
2022/01/01 12:07:19;;;;;;;26.30;14.20;;;;;9.20;97677.40;;;;110897;1248;41616;-68
2022/01/01 12:09:49;;;;;;;24.90;13.00;;;;;9.20;97674.80;;;;111024;1249;41145;-69
2022/01/01 12:12:25;;;;;;;;;;;;;9.22;97677.80;;;;111952;1240;41564;-66
2022/01/01 12:14:55;;;;;;;28.20;15.60;;;;;9.30;97678.20;;;;111681;1240;41525;-70
2022/01/01 12:17:24;;;;;;;35.20;19.40;;;;;9.30;97687.00;;;;111807;1241;41245;-69
2022/01/01 12:19:57;;;;;;;31.00;16.70;;;;;9.30;97688.00;;;;111735;1241;41712;-69
2022/01/01 12:22:26;;;;;;;32.10;17.60;;;;;9.30;97687.00;;;;111961;1238;41297;-70
2022/01/01 12:24:55;;;;;;;30.30;16.20;;;;;9.30;97686.20;;;;111948;1241;41137;-69
2022/01/01 12:27:24;;;;;;;28.10;15.20;;;;;9.30;97691.20;;;;111927;1241;41120;-67
2022/01/01 12:30:06;;;;;;;28.60;15.30;;;;;9.30;97695.20;;;;111812;1241;41347;-64
2022/01/01 12:32:38;;;;;;;28.20;14.50;;;;;9.30;97699.80;;;;111760;1241;41165;-67